createdAt,value
2023-05-05T00:00:09.926Z,48.22
2023-05-05T00:03:23.045Z,48.07
2023-05-05T00:06:00.509Z,48.19
2023-05-05T00:08:38.058Z,47.88
2023-05-05T00:11:15.241Z,48.10
2023-05-05T00:13:52.219Z,47.86
2023-05-05T00:16:25.759Z,48.04
2023-05-05T00:18:59.676Z,48.24
2023-05-05T00:21:33.900Z,48.21
2023-05-05T00:24:12.797Z,48.44
2023-05-05T00:26:50.268Z,48.53
2023-05-05T00:29:28.150Z,48.59
2023-05-05T00:32:07.859Z,48.87
2023-05-05T00:34:45.127Z,48.73
2023-05-05T00:37:17.622Z,49.47
2023-05-05T00:39:55.270Z,49.12
2023-05-05T00:42:46.136Z,48.69
2023-05-05T00:45:23.557Z,49.23
2023-05-05T00:48:05.172Z,48.89
2023-05-05T00:50:45.341Z,48.89
2023-05-05T00:53:23.029Z,48.55
2023-05-05T00:56:00.349Z,48.80
2023-05-05T00:58:38.266Z,48.68
2023-05-05T01:01:16.872Z,48.43
2023-05-05T01:03:54.130Z,48.85
2023-05-05T01:07:40.700Z,49.06
2023-05-05T01:10:26.423Z,48.99
2023-05-05T01:13:24.925Z,49.38
2023-05-05T01:16:26.954Z,49.31
2023-05-05T01:19:46.158Z,49.51
2023-05-05T01:22:25.107Z,49.59
2023-05-05T01:25:40.104Z,49.38
2023-05-05T01:28:55.751Z,49.99
2023-05-05T01:31:55.561Z,50.26
2023-05-05T01:34:46.883Z,50.33
2023-05-05T01:37:42.604Z,50.15
2023-05-05T01:40:23.445Z,49.95
2023-05-05T01:43:01.490Z,50.64
2023-05-05T01:45:41.793Z,50.19
2023-05-05T01:48:19.552Z,50.92
2023-05-05T01:50:56.378Z,51.05
2023-05-05T01:53:36.247Z,51.25
2023-05-05T01:56:15.673Z,51.36
2023-05-05T01:58:54.631Z,51.71
2023-05-05T02:01:33.363Z,51.36
2023-05-05T02:04:13.951Z,51.09
2023-05-05T02:06:53.510Z,51.67
2023-05-05T02:09:38.003Z,51.94
2023-05-05T02:12:16.809Z,52.06
2023-05-05T02:14:55.342Z,52.32
2023-05-05T02:17:33.260Z,52.88
2023-05-05T02:20:14.369Z,53.24
2023-05-05T02:22:50.282Z,53.25
2023-05-05T02:25:34.336Z,53.35
2023-05-05T02:28:23.184Z,53.87
2023-05-05T02:31:01.276Z,53.88
2023-05-05T02:33:39.727Z,53.72
2023-05-05T02:36:21.611Z,53.78
2023-05-05T02:39:06.778Z,53.21
2023-05-05T02:41:44.650Z,52.59
2023-05-05T02:44:20.220Z,52.55
2023-05-05T02:46:59.166Z,52.25
2023-05-05T02:49:38.785Z,52.08
2023-05-05T02:52:16.393Z,52.10
2023-05-05T02:54:58.956Z,51.64
2023-05-05T02:58:12.123Z,51.85
2023-05-05T03:01:09.741Z,51.68
2023-05-05T03:04:17.373Z,51.33
2023-05-05T03:07:05.968Z,51.39
2023-05-05T03:10:22.870Z,51.39
2023-05-05T03:13:08.364Z,51.38
2023-05-05T03:15:53.340Z,51.29
2023-05-05T03:18:32.080Z,50.92
2023-05-05T03:21:11.278Z,50.90
2023-05-05T03:23:43.808Z,50.86
2023-05-05T03:26:19.598Z,50.97
2023-05-05T03:28:57.700Z,51.12
2023-05-05T03:31:35.046Z,50.84
2023-05-05T03:34:12.943Z,51.04
2023-05-05T03:36:50.069Z,51.19
2023-05-05T03:39:28.026Z,50.58
2023-05-05T03:42:06.989Z,50.42
2023-05-05T03:44:43.935Z,50.27
2023-05-05T03:47:21.454Z,50.36
2023-05-05T03:49:58.841Z,49.93
2023-05-05T03:52:36.121Z,50.16
2023-05-05T03:55:14.288Z,49.82
2023-05-05T03:57:50.101Z,49.66
2023-05-05T04:00:22.176Z,50.02
2023-05-05T04:03:00.798Z,49.57
2023-05-05T04:05:31.515Z,49.80
2023-05-05T04:08:10.594Z,49.20
2023-05-05T04:10:47.291Z,49.34
2023-05-05T04:13:24.207Z,48.89
2023-05-05T04:16:01.599Z,48.98
2023-05-05T04:18:39.167Z,48.93
2023-05-05T04:21:15.853Z,48.70
2023-05-05T04:23:53.245Z,49.06
2023-05-05T04:26:24.045Z,49.18
2023-05-05T04:29:03.739Z,49.50
2023-05-05T04:31:41.683Z,49.70
2023-05-05T04:34:19.136Z,49.42
2023-05-05T04:36:56.076Z,50.03
2023-05-05T04:39:26.691Z,49.62
2023-05-05T04:42:04.642Z,49.83
2023-05-05T04:44:41.623Z,49.37
2023-05-05T04:47:18.803Z,49.20
2023-05-05T04:49:57.985Z,49.00
2023-05-05T04:52:34.383Z,49.02
2023-05-05T04:55:06.703Z,49.04
2023-05-05T04:57:42.581Z,48.53
2023-05-05T05:00:20.588Z,47.90
2023-05-05T05:02:59.100Z,47.48
2023-05-05T05:05:37.380Z,47.18
2023-05-05T05:08:17.345Z,46.54
2023-05-05T05:10:54.259Z,46.07
2023-05-05T05:13:30.844Z,44.69
2023-05-05T05:16:09.042Z,44.46
2023-05-05T05:18:45.862Z,43.95
2023-05-05T05:21:24.046Z,43.29
2023-05-05T05:24:01.541Z,42.48
2023-05-05T05:26:38.723Z,41.39
2023-05-05T05:29:15.482Z,40.48
2023-05-05T05:31:47.569Z,39.79
2023-05-05T05:34:23.370Z,39.67
2023-05-05T05:37:01.019Z,39.86
2023-05-05T05:39:37.993Z,39.38
2023-05-05T05:42:15.151Z,39.80
2023-05-05T05:44:51.995Z,40.65
2023-05-05T05:47:28.838Z,40.05
2023-05-05T05:50:07.388Z,40.01
2023-05-05T05:52:44.872Z,39.52
2023-05-05T05:55:22.083Z,39.21
2023-05-05T05:57:58.800Z,38.51
2023-05-05T06:00:31.573Z,37.60
2023-05-05T06:03:05.310Z,36.29
2023-05-05T06:05:43.101Z,35.51
2023-05-05T06:08:21.678Z,35.21
2023-05-05T06:11:01.336Z,34.72
2023-05-05T06:13:39.424Z,33.41
2023-05-05T06:16:17.947Z,32.26
2023-05-05T06:18:55.969Z,31.51
2023-05-05T06:21:33.116Z,31.33
2023-05-05T06:24:12.334Z,31.03
2023-05-05T06:26:49.866Z,30.38
2023-05-05T06:29:28.430Z,29.07
2023-05-05T06:32:08.695Z,29.33
2023-05-05T06:34:47.605Z,29.09
2023-05-05T06:37:25.485Z,29.16
2023-05-05T06:40:03.213Z,29.11
2023-05-05T06:42:41.712Z,28.86
2023-05-05T06:45:19.387Z,29.30
2023-05-05T06:47:56.941Z,28.51
2023-05-05T06:50:27.273Z,28.96
2023-05-05T06:53:05.604Z,28.45
2023-05-05T06:55:46.937Z,28.04
2023-05-05T06:58:25.663Z,26.43
2023-05-05T07:01:04.886Z,26.13
2023-05-05T07:03:44.461Z,26.23
2023-05-05T07:06:23.327Z,26.30
2023-05-05T07:09:02.290Z,27.22
2023-05-05T07:11:40.809Z,27.25
2023-05-05T07:14:20.097Z,28.22
2023-05-05T07:17:00.424Z,27.74
2023-05-05T07:19:39.065Z,27.28
2023-05-05T07:22:17.320Z,27.34
2023-05-05T07:24:55.358Z,26.94
2023-05-05T07:27:38.650Z,27.02
2023-05-05T07:30:19.047Z,28.10
2023-05-05T07:33:00.973Z,27.13
2023-05-05T07:35:39.096Z,27.04
2023-05-05T07:38:17.523Z,26.52
2023-05-05T07:40:56.288Z,26.17
2023-05-05T07:43:42.328Z,26.07
2023-05-05T07:46:23.428Z,25.45
2023-05-05T07:49:01.389Z,25.95
2023-05-05T07:51:39.584Z,26.51
2023-05-05T07:54:18.803Z,26.32
2023-05-05T07:56:57.863Z,27.30
2023-05-05T07:59:36.644Z,26.80
2023-05-05T08:02:15.617Z,27.05
2023-05-05T08:04:53.213Z,27.86
2023-05-05T08:07:32.200Z,27.33
2023-05-05T08:10:13.931Z,27.19
2023-05-05T08:12:52.221Z,27.19
2023-05-05T08:15:30.481Z,27.86
2023-05-05T08:18:09.918Z,28.48
2023-05-05T08:20:49.669Z,28.88
2023-05-05T08:23:28.021Z,28.41
2023-05-05T08:26:00.256Z,27.97
2023-05-05T08:28:34.308Z,28.16
2023-05-05T08:31:09.877Z,27.82
2023-05-05T08:33:48.890Z,26.96
2023-05-05T08:36:27.710Z,27.83
2023-05-05T08:39:07.679Z,27.70
2023-05-05T08:41:47.162Z,26.52
2023-05-05T08:44:27.469Z,26.55
2023-05-05T08:47:07.621Z,26.96
2023-05-05T08:49:50.171Z,26.53
2023-05-05T08:52:34.883Z,27.12
2023-05-05T08:55:41.549Z,27.23
2023-05-05T08:58:23.285Z,26.77
2023-05-05T09:01:02.287Z,26.69
2023-05-05T09:03:43.544Z,27.45
2023-05-05T09:06:28.706Z,27.49
2023-05-05T09:09:07.799Z,28.04
2023-05-05T09:11:50.892Z,28.12
2023-05-05T09:14:30.547Z,28.24
2023-05-05T09:17:24.570Z,28.65
2023-05-05T09:20:17.856Z,28.99
2023-05-05T09:22:58.580Z,29.75
2023-05-05T09:25:38.768Z,30.32
2023-05-05T09:28:21.567Z,30.47
2023-05-05T09:31:12.531Z,30.85
2023-05-05T09:33:50.782Z,30.84
2023-05-05T09:36:50.892Z,30.47
2023-05-05T09:39:29.324Z,29.72
2023-05-05T09:42:09.799Z,29.57
2023-05-05T09:44:49.090Z,29.02
2023-05-05T09:47:38.290Z,29.68
2023-05-05T09:50:19.376Z,30.55
2023-05-05T09:53:04.754Z,29.99
2023-05-05T09:55:43.412Z,29.44
2023-05-05T09:58:31.980Z,29.00
2023-05-05T10:01:25.767Z,28.46
2023-05-05T10:04:04.634Z,29.26
2023-05-05T10:06:50.797Z,29.36
2023-05-05T10:09:29.899Z,29.43
2023-05-05T10:12:08.286Z,29.25
2023-05-05T10:14:47.894Z,29.36
2023-05-05T10:17:31.074Z,29.53
2023-05-05T10:20:13.772Z,29.82
2023-05-05T10:22:58.016Z,30.94
2023-05-05T10:25:52.450Z,31.76
2023-05-05T10:28:34.706Z,32.94
2023-05-05T10:31:26.329Z,32.67
2023-05-05T10:34:23.280Z,32.27
2023-05-05T10:37:06.771Z,32.26
2023-05-05T10:39:47.716Z,32.34
2023-05-05T10:42:28.371Z,31.87
2023-05-05T10:45:10.913Z,31.64
2023-05-05T10:47:51.632Z,31.98
2023-05-05T10:50:44.310Z,31.98
2023-05-05T10:53:38.948Z,31.89
2023-05-05T10:56:35.258Z,31.83
2023-05-05T10:59:46.955Z,32.06
2023-05-05T11:02:35.055Z,32.09
2023-05-05T11:05:24.709Z,33.70
2023-05-05T11:07:54.907Z,35.07
2023-05-05T11:10:47.948Z,35.08
2023-05-05T11:13:27.071Z,35.26
2023-05-05T11:16:05.984Z,35.33
2023-05-05T11:18:40.134Z,35.29
2023-05-05T11:21:17.773Z,35.19
2023-05-05T11:23:55.030Z,35.69
2023-05-05T11:26:52.232Z,36.48
2023-05-05T11:29:50.874Z,36.01
2023-05-05T11:32:43.148Z,35.89
2023-05-05T11:35:16.008Z,36.26
2023-05-05T11:38:05.476Z,36.13
2023-05-05T11:40:41.138Z,36.09
2023-05-05T11:43:23.442Z,36.43
2023-05-05T11:46:19.148Z,36.37
2023-05-05T11:48:59.650Z,35.92
2023-05-05T11:51:39.423Z,35.96
2023-05-05T11:54:24.520Z,35.88
2023-05-05T11:57:10.968Z,36.46
2023-05-05T12:00:09.529Z,37.53
2023-05-05T12:02:49.078Z,37.03
2023-05-05T12:05:27.835Z,36.98
2023-05-05T12:08:01.368Z,37.44
2023-05-05T12:10:36.218Z,37.60
2023-05-05T12:13:20.368Z,37.75
2023-05-05T12:15:57.067Z,37.88
2023-05-05T12:18:35.708Z,37.48
2023-05-05T12:21:23.654Z,38.17
2023-05-05T12:23:57.021Z,37.73
2023-05-05T12:26:36.213Z,37.30
2023-05-05T12:29:07.481Z,37.01
2023-05-05T12:31:47.088Z,36.83
2023-05-05T12:34:26.766Z,36.87
2023-05-05T12:37:06.277Z,36.87
2023-05-05T12:39:46.212Z,37.01
2023-05-05T12:42:17.534Z,37.55
2023-05-05T12:44:57.931Z,37.49
2023-05-05T12:47:45.849Z,37.35
2023-05-05T12:50:36.601Z,36.96
2023-05-05T12:53:28.036Z,37.01
2023-05-05T12:55:58.972Z,37.59
2023-05-05T12:58:52.646Z,38.34
2023-05-05T13:01:31.725Z,38.54
2023-05-05T13:04:18.617Z,38.72
2023-05-05T13:07:17.063Z,38.43
2023-05-05T13:10:11.162Z,38.18
2023-05-05T13:12:42.611Z,38.12
2023-05-05T13:15:19.151Z,38.13
2023-05-05T13:18:08.434Z,38.38
2023-05-05T13:20:39.132Z,38.67
2023-05-05T13:23:17.821Z,38.82
2023-05-05T13:25:57.606Z,38.92
2023-05-05T13:28:35.907Z,39.23
2023-05-05T13:31:15.449Z,39.77
2023-05-05T13:33:54.859Z,39.96
2023-05-05T13:36:35.221Z,39.81
2023-05-05T13:39:14.120Z,39.21
2023-05-05T13:41:53.238Z,39.72
2023-05-05T13:44:32.098Z,40.64
2023-05-05T13:47:15.044Z,40.65
2023-05-05T13:49:54.249Z,39.84
2023-05-05T13:52:33.611Z,39.63
2023-05-05T13:55:15.004Z,39.42
2023-05-05T13:57:54.469Z,39.04
2023-05-05T14:00:35.134Z,38.60
2023-05-05T14:03:14.800Z,37.97
2023-05-05T14:05:54.338Z,38.73
2023-05-05T14:08:25.345Z,38.99
2023-05-05T14:10:56.315Z,38.54
2023-05-05T14:13:35.398Z,38.69
2023-05-05T14:16:14.235Z,38.52
2023-05-05T14:18:47.851Z,38.77
2023-05-05T14:21:20.254Z,39.16
2023-05-05T14:23:58.343Z,38.81
2023-05-05T14:26:37.241Z,38.79
2023-05-05T14:29:09.011Z,39.28
2023-05-05T14:31:47.614Z,39.69
2023-05-05T14:34:26.385Z,40.00
2023-05-05T14:37:04.481Z,40.11
2023-05-05T14:39:43.397Z,40.29
2023-05-05T14:42:21.992Z,40.44
2023-05-05T14:45:00.596Z,40.25
2023-05-05T14:47:40.804Z,39.25
2023-05-05T14:50:19.512Z,38.93
2023-05-05T14:52:57.852Z,38.77
2023-05-05T14:55:37.076Z,38.63
2023-05-05T14:58:16.000Z,38.69
2023-05-05T15:00:55.292Z,38.42
2023-05-05T15:03:34.454Z,39.18
2023-05-05T15:06:12.484Z,38.85
2023-05-05T15:08:42.600Z,38.96
2023-05-05T15:11:22.471Z,39.03
2023-05-05T15:14:01.154Z,38.33
2023-05-05T15:16:40.847Z,38.42
2023-05-05T15:19:21.482Z,38.47
2023-05-05T15:22:00.747Z,38.23
2023-05-05T15:24:40.089Z,38.15
2023-05-05T15:27:18.623Z,37.91
2023-05-05T15:29:57.476Z,37.61
2023-05-05T15:32:36.698Z,37.74
2023-05-05T15:35:15.339Z,37.57
2023-05-05T15:37:55.398Z,38.37
2023-05-05T15:40:33.900Z,38.46
2023-05-05T15:43:14.057Z,38.28
2023-05-05T15:45:50.267Z,39.22
2023-05-05T15:48:30.030Z,38.91
2023-05-05T15:51:09.774Z,39.10
2023-05-05T15:53:47.961Z,39.09
2023-05-05T15:56:28.659Z,38.86
2023-05-05T15:59:05.248Z,38.93
2023-05-05T16:01:43.153Z,38.69
2023-05-05T16:04:21.692Z,38.61
2023-05-05T16:07:00.385Z,38.94
2023-05-05T16:09:38.726Z,38.90
2023-05-05T16:12:16.684Z,38.99
2023-05-05T16:14:54.556Z,39.13
2023-05-05T16:17:25.003Z,39.40
2023-05-05T16:20:04.783Z,38.82
2023-05-05T16:22:43.269Z,38.83
2023-05-05T16:25:22.733Z,38.80
2023-05-05T16:28:03.834Z,38.55
2023-05-05T16:30:43.670Z,38.90
2023-05-05T16:33:27.537Z,39.26
2023-05-05T16:36:04.327Z,39.69
2023-05-05T16:38:45.811Z,39.95
2023-05-05T16:41:34.699Z,40.45
2023-05-05T16:44:09.469Z,40.44
2023-05-05T16:46:54.513Z,41.29
2023-05-05T16:49:29.011Z,41.23
2023-05-05T16:52:05.693Z,41.04
2023-05-05T16:54:44.524Z,40.99
2023-05-05T16:57:26.696Z,41.10
2023-05-05T17:00:05.249Z,41.69
2023-05-05T17:02:44.322Z,42.09
2023-05-05T17:05:23.005Z,42.63
2023-05-05T17:07:55.500Z,43.22
2023-05-05T17:10:33.858Z,43.42
2023-05-05T17:13:15.717Z,43.92
2023-05-05T17:15:54.585Z,44.36
2023-05-05T17:18:26.520Z,44.34
2023-05-05T17:21:07.108Z,44.51
2023-05-05T17:23:46.306Z,44.35
2023-05-05T17:26:24.865Z,44.22
2023-05-05T17:28:55.023Z,44.38
2023-05-05T17:31:26.367Z,44.74
2023-05-05T17:34:05.285Z,44.60
2023-05-05T17:36:44.549Z,45.11
2023-05-05T17:39:23.524Z,44.71
2023-05-05T17:41:54.673Z,45.28
2023-05-05T17:44:33.336Z,45.42
2023-05-05T17:47:13.824Z,45.90
2023-05-05T17:49:54.243Z,46.52
2023-05-05T17:52:33.730Z,47.04
2023-05-05T17:55:14.552Z,47.60
2023-05-05T17:57:53.202Z,47.62
2023-05-05T18:00:31.668Z,47.82
2023-05-05T18:03:12.346Z,47.93
2023-05-05T18:05:52.195Z,48.60
2023-05-05T18:08:22.802Z,48.70
2023-05-05T18:11:01.235Z,49.23
2023-05-05T18:13:32.135Z,48.64
2023-05-05T18:16:07.548Z,49.07
2023-05-05T18:18:45.546Z,49.62
2023-05-05T18:21:24.504Z,49.71
2023-05-05T18:24:15.584Z,49.64
2023-05-05T18:27:01.183Z,49.50
2023-05-05T18:29:40.189Z,49.81
2023-05-05T18:32:13.057Z,50.28
2023-05-05T18:34:47.615Z,50.51
2023-05-05T18:37:26.076Z,50.63
2023-05-05T18:40:05.135Z,50.94
2023-05-05T18:42:44.055Z,50.74
2023-05-05T18:45:23.638Z,50.99
2023-05-05T18:48:01.793Z,51.24
2023-05-05T18:50:41.121Z,51.96
2023-05-05T18:53:21.229Z,51.81
2023-05-05T18:55:59.546Z,51.65
2023-05-05T18:58:38.485Z,51.99
2023-05-05T19:01:17.306Z,51.92
2023-05-05T19:03:56.857Z,52.01
2023-05-05T19:06:35.510Z,52.36
2023-05-05T19:09:14.990Z,52.56
2023-05-05T19:11:53.489Z,52.03
2023-05-05T19:14:32.262Z,52.26
2023-05-05T19:17:11.781Z,52.23
2023-05-05T19:19:49.754Z,52.90
2023-05-05T19:22:28.148Z,53.16
2023-05-05T19:25:06.652Z,53.03
2023-05-05T19:27:46.086Z,53.39
2023-05-05T19:30:24.342Z,54.03
2023-05-05T19:33:02.711Z,53.60
2023-05-05T19:35:37.792Z,53.71
2023-05-05T19:38:12.613Z,53.86
2023-05-05T19:40:46.956Z,53.89
2023-05-05T19:43:25.052Z,54.00
2023-05-05T19:46:02.690Z,54.64
2023-05-05T19:48:41.112Z,54.08
2023-05-05T19:51:20.254Z,54.12
2023-05-05T19:53:59.894Z,54.47
2023-05-05T19:56:39.253Z,54.58
2023-05-05T19:59:18.107Z,54.47
2023-05-05T20:01:56.327Z,54.89
2023-05-05T20:04:34.374Z,54.51
2023-05-05T20:07:13.192Z,54.69
2023-05-05T20:09:51.566Z,55.22
2023-05-05T20:12:29.286Z,55.65
2023-05-05T20:15:07.930Z,55.21
2023-05-05T20:17:46.986Z,55.86
2023-05-05T20:20:25.729Z,55.76
2023-05-05T20:23:03.711Z,56.02
2023-05-05T20:25:35.552Z,55.92
2023-05-05T20:28:11.245Z,56.66
2023-05-05T20:30:47.124Z,55.89
2023-05-05T20:33:26.190Z,56.00
2023-05-05T20:36:04.600Z,55.85
2023-05-05T20:38:42.484Z,56.01
2023-05-05T20:41:20.951Z,56.39
2023-05-05T20:43:59.202Z,56.62
2023-05-05T20:46:34.629Z,56.51
2023-05-05T20:49:13.655Z,56.62
2023-05-05T20:51:52.200Z,56.64
2023-05-05T20:54:39.892Z,56.66
2023-05-05T20:57:17.924Z,57.08
2023-05-05T20:59:57.023Z,57.33
2023-05-05T21:02:34.667Z,57.25
2023-05-05T21:05:14.265Z,57.55
2023-05-05T21:07:52.142Z,57.37
2023-05-05T21:10:22.723Z,57.11
2023-05-05T21:12:53.454Z,57.76
2023-05-05T21:15:32.657Z,58.06
2023-05-05T21:18:12.442Z,58.07
2023-05-05T21:20:50.704Z,58.18
2023-05-05T21:23:28.586Z,58.42
2023-05-05T21:26:07.361Z,57.95
2023-05-05T21:28:46.616Z,58.21
2023-05-05T21:31:24.430Z,58.22
2023-05-05T21:33:54.578Z,58.50
2023-05-05T21:36:34.086Z,58.88
2023-05-05T21:39:13.841Z,58.98
2023-05-05T21:41:51.591Z,58.58
2023-05-05T21:44:29.510Z,58.42
2023-05-05T21:47:07.654Z,58.35
2023-05-05T21:49:44.973Z,58.53
2023-05-05T21:52:14.995Z,58.67
2023-05-05T21:54:52.874Z,58.87
2023-05-05T21:57:31.441Z,58.81
2023-05-05T22:00:10.305Z,59.06
2023-05-05T22:02:48.814Z,58.89
2023-05-05T22:05:26.658Z,59.41
2023-05-05T22:08:05.212Z,58.90
2023-05-05T22:10:43.062Z,59.38
2023-05-05T22:13:21.459Z,59.19
2023-05-05T22:15:59.117Z,59.32
2023-05-05T22:18:37.744Z,59.34
2023-05-05T22:21:15.772Z,59.56
2023-05-05T22:23:54.425Z,59.94
2023-05-05T22:26:32.891Z,59.92
2023-05-05T22:29:12.001Z,60.06
2023-05-05T22:31:47.385Z,60.00
2023-05-05T22:34:26.273Z,60.16
2023-05-05T22:37:05.159Z,60.46
2023-05-05T22:39:43.920Z,60.63
2023-05-05T22:42:23.896Z,60.23
2023-05-05T22:45:01.944Z,60.38
2023-05-05T22:47:33.538Z,61.03
2023-05-05T22:50:10.407Z,60.74
2023-05-05T22:52:48.895Z,60.81
2023-05-05T22:55:28.836Z,60.95
2023-05-05T22:58:07.437Z,61.71
2023-05-05T23:00:45.360Z,61.46
2023-05-05T23:03:24.269Z,61.74
2023-05-05T23:06:02.687Z,61.78
2023-05-05T23:08:42.032Z,62.07
2023-05-05T23:11:20.848Z,61.93
2023-05-05T23:13:58.984Z,61.83
2023-05-05T23:16:37.099Z,62.01
2023-05-05T23:19:16.149Z,62.47
2023-05-05T23:21:54.661Z,62.61
2023-05-05T23:24:25.377Z,62.62
2023-05-05T23:27:05.430Z,62.49
2023-05-05T23:29:44.727Z,62.83
2023-05-05T23:32:21.082Z,62.86
2023-05-05T23:34:52.242Z,63.42
2023-05-05T23:37:31.278Z,63.32
2023-05-05T23:40:11.129Z,63.31
2023-05-05T23:42:49.852Z,62.96
2023-05-05T23:45:30.300Z,63.41
2023-05-05T23:48:10.172Z,63.23
2023-05-05T23:50:48.107Z,62.91
2023-05-05T23:53:26.057Z,62.68
2023-05-05T23:56:04.962Z,62.36
2023-05-05T23:58:43.737Z,61.52
